Main page
METAR-TAF:

METAR-TAF

Airports :

Funafuti, Tuvalu

Funafuti International Airport

latitude: 08-31S, longitude: 179-13E, elevation: 1 m

Current weather observation

The report was made 37 minutes ago, at 02:00 UTC
Wind 12 kt from the East/Northeast
Temperature 32°C
Humidity 71%
Pressure 1007 hPa
Visibility 10 km or more
Few clouds at a height of 2000 ft, Towering cumulus.
Scattered clouds at a height of 30000 ft

METAR: NGFU 240200Z 07012KT 9999 FEW020TCU SCT300 32/26 Q1007

Time: 14:37 (02:37 UTC)

Forecast

The report was made 3 hours and 14 minutes ago, at 23:23 UTC
Forecast valid from 24 at 00 UTC to 24 at 24 UTC
Wind 12 kt from the East
Visibility 10 km or more
Few clouds at a height of 2000 ft

TAF: NGFU 232323Z 2400/2424 08012KT 9999 FEW020

Weather observations and forecasts of more than 4000 airports (METAR and TAF reports).

The available stations are represented by yellow and red dots on the map.

Hover mouse over dot to see the name of the station.

Then click to see weather observations and forecasts.

To change the map : click on the green buttons with a black cross to zoom in, on the green button with a dash to zoom out, or on the green arrows for adjacent maps.


METAR-TAF: